createdAt,value
2023-01-08T00:01:56.247Z,18.92
2023-01-08T00:04:26.881Z,18.17
2023-01-08T00:07:00.125Z,15.95
2023-01-08T00:09:30.775Z,10.65
2023-01-08T00:12:01.391Z,10.25
2023-01-08T00:14:33.247Z,15.23
2023-01-08T00:17:04.762Z,16.75
2023-01-08T00:19:35.268Z,18.67
2023-01-08T00:22:08.390Z,18.65
2023-01-08T00:24:39.111Z,16.17
2023-01-08T00:27:09.989Z,16.98
2023-01-08T00:29:40.824Z,8.60
2023-01-08T00:32:11.351Z,14.07
2023-01-08T00:34:41.911Z,17.42
2023-01-08T00:37:15.374Z,19.77
2023-01-08T00:39:45.980Z,19.30
2023-01-08T00:42:16.619Z,19.35
2023-01-08T00:44:47.195Z,17.83
2023-01-08T00:47:18.129Z,13.00
2023-01-08T00:49:48.707Z,16.38
2023-01-08T00:52:21.815Z,17.08
2023-01-08T00:54:52.295Z,16.60
2023-01-08T00:57:22.744Z,16.88
2023-01-08T00:59:53.725Z,14.60
2023-01-08T01:02:24.256Z,16.00
2023-01-08T01:04:54.895Z,15.88
2023-01-08T01:07:27.985Z,15.38
2023-01-08T01:09:58.491Z,17.90
2023-01-08T01:12:29.122Z,17.30
2023-01-08T01:14:59.643Z,14.07
2023-01-08T01:17:30.184Z,18.55
2023-01-08T01:20:00.723Z,18.02
2023-01-08T01:22:33.853Z,15.80
2023-01-08T01:25:04.424Z,7.10
2023-01-08T01:27:34.896Z,11.13
2023-01-08T01:30:05.487Z,12.00
2023-01-08T01:32:36.766Z,14.10
2023-01-08T01:35:08.075Z,7.80
2023-01-08T01:37:41.542Z,6.63
2023-01-08T01:40:13.990Z,9.70
2023-01-08T01:42:44.782Z,14.70
2023-01-08T01:45:21.471Z,14.43
2023-01-08T01:47:57.096Z,13.27
2023-01-08T01:50:32.441Z,12.15
2023-01-08T01:53:11.686Z,11.10
2023-01-08T01:55:45.845Z,10.73
2023-01-08T01:58:19.537Z,10.10
2023-01-08T02:00:51.055Z,11.65
2023-01-08T02:03:25.451Z,11.80
2023-01-08T02:06:01.198Z,12.23
2023-01-08T02:08:40.598Z,14.82
2023-01-08T02:11:14.844Z,13.48
2023-01-08T02:13:53.876Z,15.40
2023-01-08T02:16:32.421Z,20.17
2023-01-08T02:19:11.573Z,23.02
2023-01-08T02:21:59.470Z,20.48
2023-01-08T02:24:44.469Z,18.20
2023-01-08T02:27:19.383Z,15.80
2023-01-08T02:29:51.094Z,13.45
2023-01-08T02:32:21.756Z,14.73
2023-01-08T02:34:52.258Z,16.58
2023-01-08T02:37:23.146Z,16.45
2023-01-08T02:40:14.074Z,16.52
2023-01-08T02:42:52.817Z,15.95
2023-01-08T02:45:42.216Z,16.08
2023-01-08T02:48:15.753Z,16.10
2023-01-08T02:50:51.818Z,14.50
2023-01-08T02:53:26.072Z,14.23
2023-01-08T02:56:00.228Z,15.35
2023-01-08T02:58:35.327Z,14.27
2023-01-08T03:01:07.946Z,13.45
2023-01-08T03:03:40.743Z,16.60
2023-01-08T03:06:13.687Z,18.95
2023-01-08T03:08:46.933Z,19.83
2023-01-08T03:11:20.847Z,16.75
2023-01-08T03:14:00.386Z,15.68
2023-01-08T03:16:37.673Z,17.40
2023-01-08T03:19:16.043Z,19.77
2023-01-08T03:21:48.871Z,19.42
2023-01-08T03:24:24.908Z,20.90
2023-01-08T03:26:59.617Z,17.77
2023-01-08T03:29:32.834Z,16.52
2023-01-08T03:32:06.600Z,18.10
2023-01-08T03:34:41.133Z,17.20
2023-01-08T03:37:13.896Z,17.35
2023-01-08T03:39:48.158Z,17.83
2023-01-08T03:42:21.078Z,18.08
2023-01-08T03:44:54.837Z,13.65
2023-01-08T03:47:27.015Z,15.02
2023-01-08T03:49:58.492Z,15.20
2023-01-08T03:52:31.804Z,14.05
2023-01-08T03:55:02.821Z,13.50
2023-01-08T03:57:33.818Z,11.82
2023-01-08T04:00:08.138Z,11.07
2023-01-08T04:02:38.886Z,11.18
2023-01-08T04:05:10.889Z,10.30
2023-01-08T04:07:41.372Z,6.95
2023-01-08T04:10:12.483Z,6.18
2023-01-08T04:12:45.118Z,9.60
2023-01-08T04:15:18.343Z,8.35
2023-01-08T04:17:48.874Z,10.05
2023-01-08T04:20:19.760Z,10.13
2023-01-08T04:22:50.227Z,10.23
2023-01-08T04:25:21.043Z,9.07
2023-01-08T04:27:51.619Z,9.95
2023-01-08T04:30:24.850Z,10.18
2023-01-08T04:32:55.278Z,7.00
2023-01-08T04:35:25.865Z,6.90
2023-01-08T04:37:56.417Z,12.70
2023-01-08T04:40:27.029Z,12.55
2023-01-08T04:42:57.563Z,9.25
2023-01-08T04:45:30.738Z,14.23
2023-01-08T04:48:02.546Z,10.38
2023-01-08T04:50:33.262Z,19.30
2023-01-08T04:53:04.060Z,20.27
2023-01-08T04:55:34.679Z,17.33
2023-01-08T04:58:05.370Z,14.50
2023-01-08T05:00:39.190Z,18.45
2023-01-08T05:03:09.889Z,20.02
2023-01-08T05:05:41.911Z,20.80
2023-01-08T05:08:12.497Z,23.48
2023-01-08T05:10:43.014Z,15.85
2023-01-08T05:13:13.449Z,14.75
2023-01-08T05:15:46.594Z,11.68
2023-01-08T05:18:17.463Z,10.05
2023-01-08T05:20:47.936Z,8.45
2023-01-08T05:23:18.700Z,11.05
2023-01-08T05:25:49.365Z,12.48
2023-01-08T05:28:19.972Z,15.15
2023-01-08T05:30:53.406Z,14.82
2023-01-08T05:33:24.472Z,13.35
2023-01-08T05:35:55.231Z,17.17
2023-01-08T05:38:25.941Z,14.57
2023-01-08T05:40:56.650Z,11.63
2023-01-08T05:43:27.394Z,14.15
2023-01-08T05:46:01.465Z,10.55
2023-01-08T05:48:32.969Z,16.73
2023-01-08T05:51:03.559Z,9.52
2023-01-08T05:53:35.040Z,9.00
2023-01-08T05:56:09.114Z,13.02
2023-01-08T05:58:39.959Z,14.48
2023-01-08T06:01:16.194Z,13.88
2023-01-08T06:03:46.945Z,12.82
2023-01-08T06:06:17.970Z,10.77
2023-01-08T06:08:48.529Z,12.75
2023-01-08T06:11:19.312Z,13.48
2023-01-08T06:13:49.898Z,11.88
2023-01-08T06:16:23.940Z,11.98
2023-01-08T06:18:54.679Z,12.90
2023-01-08T06:21:25.160Z,18.50
2023-01-08T06:23:55.716Z,16.98
2023-01-08T06:26:26.411Z,19.15
2023-01-08T06:28:56.967Z,18.70
2023-01-08T06:31:30.284Z,19.55
2023-01-08T06:34:00.792Z,20.05
2023-01-08T06:36:31.479Z,12.20
2023-01-08T06:39:01.957Z,10.80
2023-01-08T06:41:32.407Z,6.75
2023-01-08T06:44:03.384Z,10.50
2023-01-08T06:46:40.446Z,30.02
2023-01-08T06:49:11.411Z,25.13
2023-01-08T06:51:41.903Z,27.15
2023-01-08T06:54:13.664Z,26.15
2023-01-08T06:56:53.249Z,22.98
2023-01-08T06:59:25.038Z,12.48
2023-01-08T07:01:58.568Z,11.10
2023-01-08T07:04:29.311Z,20.10
2023-01-08T07:06:59.903Z,26.80
2023-01-08T07:09:30.441Z,32.03
2023-01-08T07:12:01.121Z,32.58
2023-01-08T07:14:31.604Z,29.52
2023-01-08T07:17:04.816Z,27.27
2023-01-08T07:19:35.638Z,19.50
2023-01-08T07:22:06.150Z,24.25
2023-01-08T07:24:36.623Z,25.20
2023-01-08T07:27:07.317Z,24.45
2023-01-08T07:29:37.986Z,27.52
2023-01-08T07:32:11.275Z,29.10
2023-01-08T07:34:41.759Z,29.08
2023-01-08T07:37:12.334Z,28.90
2023-01-08T07:39:42.811Z,33.95
2023-01-08T07:42:13.805Z,31.17
2023-01-08T07:44:44.603Z,35.88
2023-01-08T07:47:17.752Z,32.10
2023-01-08T07:49:48.319Z,26.60
2023-01-08T07:52:18.926Z,21.30
2023-01-08T07:54:49.472Z,19.52
2023-01-08T07:57:20.222Z,16.30
2023-01-08T07:59:50.795Z,17.55
2023-01-08T08:02:24.092Z,15.88
2023-01-08T08:04:54.745Z,14.68
2023-01-08T08:07:25.384Z,21.02
2023-01-08T08:09:55.967Z,15.23
2023-01-08T08:12:26.566Z,13.40
2023-01-08T08:14:57.099Z,12.02
2023-01-08T08:17:30.562Z,13.05
2023-01-08T08:20:01.729Z,14.30
2023-01-08T08:22:33.399Z,13.32
2023-01-08T08:25:03.901Z,13.23
2023-01-08T08:27:34.416Z,10.60
2023-01-08T08:30:04.973Z,11.95
2023-01-08T08:32:38.209Z,10.43
2023-01-08T08:35:09.966Z,11.70
2023-01-08T08:37:40.574Z,10.45
2023-01-08T08:40:12.469Z,11.00
2023-01-08T08:42:43.184Z,10.05
2023-01-08T08:45:14.096Z,12.13
2023-01-08T08:47:47.286Z,11.98
2023-01-08T08:50:17.738Z,13.35
2023-01-08T08:52:49.201Z,13.35
2023-01-08T08:55:20.596Z,13.88
2023-01-08T08:57:51.502Z,14.15
2023-01-08T09:00:22.387Z,15.57
2023-01-08T09:02:55.857Z,14.02
2023-01-08T09:05:26.427Z,16.75
2023-01-08T09:07:57.229Z,17.92
2023-01-08T09:10:27.883Z,14.43
2023-01-08T09:12:58.849Z,12.73
2023-01-08T09:15:29.467Z,14.82
2023-01-08T09:18:02.703Z,22.60
2023-01-08T09:20:33.523Z,17.60
2023-01-08T09:23:04.671Z,20.05
2023-01-08T09:25:35.270Z,16.73
2023-01-08T09:28:07.651Z,16.25
2023-01-08T09:30:38.770Z,15.13
2023-01-08T09:33:12.915Z,10.48
2023-01-08T09:35:46.476Z,12.05
2023-01-08T09:38:17.049Z,10.40
2023-01-08T09:40:55.127Z,17.73
2023-01-08T09:43:28.071Z,15.05
2023-01-08T09:46:01.525Z,12.50
2023-01-08T09:48:38.848Z,14.05
2023-01-08T09:51:15.397Z,12.98
2023-01-08T09:53:46.863Z,10.63
2023-01-08T09:56:20.713Z,13.55
2023-01-08T09:58:53.647Z,10.82
2023-01-08T10:01:27.131Z,9.27
2023-01-08T10:04:07.509Z,7.80
2023-01-08T10:06:37.990Z,6.82
2023-01-08T10:09:09.497Z,6.57
2023-01-08T10:11:46.415Z,7.00
2023-01-08T10:14:24.863Z,6.30
2023-01-08T10:16:59.224Z,6.18
2023-01-08T10:19:32.462Z,6.50
2023-01-08T10:22:03.176Z,6.78
2023-01-08T10:24:39.884Z,7.13
2023-01-08T10:27:12.287Z,6.88
2023-01-08T10:29:43.254Z,7.07
2023-01-08T10:32:18.251Z,6.15
2023-01-08T10:34:53.568Z,7.20
2023-01-08T10:37:30.426Z,7.43
2023-01-08T10:40:09.123Z,8.68
2023-01-08T10:42:40.034Z,10.10
2023-01-08T10:45:25.386Z,8.73
2023-01-08T10:48:00.418Z,8.15
2023-01-08T10:50:35.037Z,8.18
2023-01-08T10:53:07.839Z,8.37
2023-01-08T10:55:40.863Z,7.47
2023-01-08T10:58:17.947Z,8.82
2023-01-08T11:00:49.249Z,6.72
2023-01-08T11:03:28.221Z,7.03
2023-01-08T11:06:01.735Z,7.22
2023-01-08T11:08:32.457Z,6.90
2023-01-08T11:11:05.234Z,6.97
2023-01-08T11:13:35.717Z,7.03
2023-01-08T11:16:10.718Z,7.47
2023-01-08T11:18:49.205Z,7.03
2023-01-08T11:21:30.984Z,7.20
2023-01-08T11:24:08.242Z,6.32
2023-01-08T11:26:40.103Z,4.95
2023-01-08T11:29:18.129Z,5.75
2023-01-08T11:31:56.253Z,2.85
2023-01-08T11:34:34.684Z,4.57
2023-01-08T11:37:15.244Z,3.95
2023-01-08T11:39:45.776Z,2.75
2023-01-08T11:42:28.900Z,4.38
2023-01-08T11:45:14.709Z,4.00
2023-01-08T11:50:31.402Z,2.25
2023-01-08T11:53:23.510Z,2.25
2023-01-08T11:56:08.339Z,3.08
2023-01-08T11:58:55.172Z,2.40
2023-01-08T12:01:39.014Z,3.55
2023-01-08T12:04:44.122Z,2.53
2023-01-08T12:07:22.220Z,2.10
2023-01-08T12:10:02.517Z,2.05
2023-01-08T12:12:48.888Z,2.10
2023-01-08T12:15:26.764Z,2.20
2023-01-08T12:18:15.030Z,2.50
2023-01-08T12:20:55.838Z,3.42
2023-01-08T12:23:39.512Z,2.15
2023-01-08T12:26:22.100Z,2.80
2023-01-08T12:29:18.291Z,2.97
2023-01-08T12:32:18.002Z,2.58
2023-01-08T12:34:57.419Z,2.45
2023-01-08T12:37:32.803Z,3.00
2023-01-08T12:40:08.767Z,4.13
2023-01-08T12:42:47.392Z,2.60
2023-01-08T12:45:29.231Z,2.90
2023-01-08T12:48:06.738Z,3.35
2023-01-08T12:50:47.866Z,8.20
2023-01-08T12:53:24.760Z,3.97
2023-01-08T12:56:04.005Z,2.60
2023-01-08T12:58:47.441Z,4.22
2023-01-08T13:01:32.298Z,2.80
2023-01-08T13:04:05.059Z,3.70
2023-01-08T13:06:35.637Z,2.50
2023-01-08T13:09:07.055Z,2.25
2023-01-08T13:11:42.561Z,4.10
2023-01-08T13:16:49.421Z,2.53
2023-01-08T13:19:29.133Z,3.75
2023-01-08T13:22:02.356Z,2.33
2023-01-08T13:24:36.148Z,1.90
2023-01-08T13:27:31.041Z,2.58
2023-01-08T13:30:04.123Z,2.70
2023-01-08T13:32:47.591Z,2.42
2023-01-08T13:35:31.536Z,3.30
2023-01-08T13:38:19.150Z,2.17
2023-01-08T13:40:58.473Z,2.90
2023-01-08T13:43:33.299Z,2.30
2023-01-08T13:46:23.839Z,2.70
2023-01-08T13:49:01.873Z,2.70
2023-01-08T13:51:36.391Z,2.97
2023-01-08T13:54:18.900Z,2.40
2023-01-08T13:56:53.198Z,2.85
2023-01-08T13:59:34.328Z,2.90
2023-01-08T14:02:21.790Z,2.40
2023-01-08T14:04:53.326Z,2.50
2023-01-08T14:07:24.352Z,2.40
2023-01-08T14:09:55.353Z,3.00
2023-01-08T14:12:28.218Z,2.85
2023-01-08T14:15:01.556Z,2.97
2023-01-08T14:17:36.391Z,4.40
2023-01-08T14:20:13.899Z,3.80
2023-01-08T14:22:45.551Z,3.42
2023-01-08T14:25:20.507Z,3.60
2023-01-08T14:28:03.739Z,3.83
2023-01-08T14:30:35.912Z,4.57
2023-01-08T14:33:16.173Z,5.13
2023-01-08T14:35:47.091Z,4.68
2023-01-08T14:38:18.149Z,4.97
2023-01-08T14:40:53.525Z,7.40
2023-01-08T14:43:24.689Z,5.13
2023-01-08T14:45:57.797Z,4.32
2023-01-08T14:48:40.943Z,5.10
2023-01-08T14:51:13.912Z,4.55
2023-01-08T14:53:47.770Z,5.60
2023-01-08T14:56:20.944Z,6.80
2023-01-08T14:58:52.032Z,6.75
2023-01-08T15:01:26.221Z,9.98
2023-01-08T15:04:10.732Z,6.90
2023-01-08T15:06:42.083Z,7.85
2023-01-08T15:09:24.263Z,6.03
2023-01-08T15:11:57.354Z,6.93
2023-01-08T15:14:29.513Z,5.53
2023-01-08T15:17:01.761Z,8.18
2023-01-08T15:19:42.421Z,8.52
2023-01-08T15:22:21.490Z,5.80
2023-01-08T15:25:01.280Z,6.57
2023-01-08T15:27:37.133Z,5.57
2023-01-08T15:30:10.388Z,12.88
2023-01-08T15:32:41.212Z,12.32
2023-01-08T15:35:21.430Z,11.02
2023-01-08T15:37:51.948Z,11.57
2023-01-08T15:40:22.614Z,12.50
2023-01-08T15:43:05.395Z,12.50
2023-01-08T15:45:36.030Z,15.45
2023-01-08T15:48:06.876Z,13.68
2023-01-08T15:50:41.108Z,16.45
2023-01-08T15:53:18.805Z,19.00
2023-01-08T15:55:49.547Z,24.58
2023-01-08T15:58:20.396Z,24.58
2023-01-08T16:00:50.993Z,22.80
2023-01-08T16:03:23.030Z,29.23
2023-01-08T16:05:56.220Z,16.35
2023-01-08T16:08:27.299Z,33.80
2023-01-08T16:10:58.119Z,33.22
2023-01-08T16:13:28.730Z,31.60
2023-01-08T16:15:59.364Z,35.42
2023-01-08T16:18:31.470Z,42.38
2023-01-08T16:21:05.892Z,40.97
2023-01-08T16:23:36.907Z,41.35
2023-01-08T16:26:09.650Z,40.08
2023-01-08T16:28:40.497Z,57.55
2023-01-08T16:31:12.264Z,44.28
2023-01-08T16:33:42.866Z,37.55
2023-01-08T16:36:16.336Z,41.08
2023-01-08T16:38:46.933Z,37.78
2023-01-08T16:41:17.516Z,41.63
2023-01-08T16:43:48.671Z,40.03
2023-01-08T16:46:20.913Z,34.55
2023-01-08T16:48:52.405Z,34.70
2023-01-08T16:51:28.124Z,45.47
2023-01-08T16:53:59.309Z,41.30
2023-01-08T16:56:30.039Z,44.15
2023-01-08T16:59:01.136Z,44.20
2023-01-08T17:01:32.606Z,42.38
2023-01-08T17:04:03.505Z,41.10
2023-01-08T17:06:39.631Z,44.80
2023-01-08T17:09:11.625Z,41.65
2023-01-08T17:11:42.609Z,38.90
2023-01-08T17:14:13.735Z,32.92
2023-01-08T17:16:45.547Z,36.83
2023-01-08T17:19:17.472Z,35.00
2023-01-08T17:21:52.799Z,36.85
2023-01-08T17:24:23.405Z,34.78
2023-01-08T17:26:53.990Z,37.67
2023-01-08T17:29:25.372Z,39.17
2023-01-08T17:31:56.294Z,38.83
2023-01-08T17:34:27.032Z,39.92
2023-01-08T17:37:00.273Z,37.17
2023-01-08T17:39:34.131Z,38.00
2023-01-08T17:42:16.968Z,33.42
2023-01-08T17:44:47.524Z,34.58
2023-01-08T17:47:20.066Z,41.97
2023-01-08T17:49:52.846Z,42.78
2023-01-08T17:52:28.040Z,34.47
2023-01-08T17:54:58.726Z,41.85
2023-01-08T17:57:31.741Z,40.72
2023-01-08T18:00:02.877Z,32.78
2023-01-08T18:02:36.198Z,32.65
2023-01-08T18:05:07.199Z,32.80
2023-01-08T18:07:40.481Z,33.05
2023-01-08T18:10:15.669Z,34.90
2023-01-08T18:12:46.145Z,33.95
2023-01-08T18:15:17.012Z,33.50
2023-01-08T18:17:48.343Z,35.60
2023-01-08T18:20:19.787Z,34.83
2023-01-08T18:22:54.364Z,35.08
2023-01-08T18:25:25.015Z,38.70
2023-01-08T18:27:55.536Z,37.40
2023-01-08T18:30:27.209Z,35.22
2023-01-08T18:32:58.180Z,33.75
2023-01-08T18:35:28.742Z,31.60
2023-01-08T18:38:02.455Z,35.55
2023-01-08T18:40:33.254Z,40.70
2023-01-08T18:43:03.830Z,35.25
2023-01-08T18:45:35.657Z,32.28
2023-01-08T18:48:06.246Z,24.83
2023-01-08T18:50:37.022Z,21.70
2023-01-08T18:53:10.228Z,23.38
2023-01-08T18:55:40.936Z,18.10
2023-01-08T18:58:11.482Z,21.23
2023-01-08T19:00:42.325Z,28.73
2023-01-08T19:03:13.331Z,29.60
2023-01-08T19:05:44.903Z,26.13
2023-01-08T19:08:18.715Z,21.27
2023-01-08T19:10:50.586Z,18.30
2023-01-08T19:13:21.547Z,17.02
2023-01-08T19:15:53.000Z,15.57
2023-01-08T19:18:23.964Z,16.60
2023-01-08T19:20:54.676Z,15.68
2023-01-08T19:23:28.378Z,14.40
2023-01-08T19:25:59.119Z,11.13
2023-01-08T19:28:29.643Z,12.27
2023-01-08T19:31:02.680Z,13.70
2023-01-08T19:33:33.655Z,13.30
2023-01-08T19:36:08.781Z,9.98
2023-01-08T19:38:43.209Z,14.85
2023-01-08T19:41:26.607Z,8.73
2023-01-08T19:43:57.805Z,7.85
2023-01-08T19:46:28.891Z,7.88
2023-01-08T19:49:01.062Z,7.45
2023-01-08T19:51:33.830Z,7.55
2023-01-08T19:54:07.879Z,8.40
2023-01-08T19:56:39.569Z,6.25
2023-01-08T19:59:10.350Z,7.65
2023-01-08T20:01:42.994Z,9.07
2023-01-08T20:04:17.608Z,7.00
2023-01-08T20:06:48.848Z,8.03
2023-01-08T20:09:22.462Z,8.15
2023-01-08T20:11:54.416Z,7.30
2023-01-08T20:14:26.234Z,6.13
2023-01-08T20:16:57.262Z,7.40
2023-01-08T20:19:29.705Z,8.63
2023-01-08T20:22:02.582Z,8.80
2023-01-08T20:24:35.910Z,8.82
2023-01-08T20:27:07.959Z,8.25
2023-01-08T20:29:39.187Z,7.13
2023-01-08T20:32:10.023Z,7.65
2023-01-08T20:34:40.899Z,8.23
2023-01-08T20:37:12.288Z,7.20
2023-01-08T20:39:46.370Z,8.13
2023-01-08T20:42:17.783Z,9.07
2023-01-08T20:44:59.351Z,8.18
2023-01-08T20:47:30.363Z,6.35
2023-01-08T20:50:03.350Z,6.03
2023-01-08T20:52:37.952Z,6.00
2023-01-08T20:55:12.231Z,6.70
2023-01-08T20:57:44.502Z,6.07
2023-01-08T21:00:17.349Z,6.55
2023-01-08T21:02:48.517Z,6.47
2023-01-08T21:05:19.694Z,6.60
2023-01-08T21:07:50.440Z,7.05
2023-01-08T21:10:23.961Z,5.85
2023-01-08T21:12:54.564Z,5.85
2023-01-08T21:15:25.440Z,5.45
2023-01-08T21:17:56.336Z,5.60
2023-01-08T21:20:27.424Z,5.90
2023-01-08T21:22:58.423Z,5.43
2023-01-08T21:25:35.403Z,5.18
2023-01-08T21:28:08.448Z,6.60
2023-01-08T21:30:39.489Z,5.93
2023-01-08T21:33:10.674Z,6.45
2023-01-08T21:35:41.462Z,6.45
2023-01-08T21:38:12.581Z,6.68
2023-01-08T21:40:45.753Z,7.07
2023-01-08T21:43:30.014Z,6.63
2023-01-08T21:46:05.424Z,7.82
2023-01-08T21:48:36.712Z,7.40
2023-01-08T21:51:27.772Z,6.78
2023-01-08T21:53:56.526Z,7.60
2023-01-08T21:56:30.079Z,7.70
2023-01-08T21:59:00.745Z,8.45
2023-01-08T22:01:32.575Z,11.30
2023-01-08T22:04:04.524Z,12.95
2023-01-08T22:06:35.943Z,8.10
2023-01-08T22:09:07.016Z,9.82
2023-01-08T22:11:40.732Z,8.73
2023-01-08T22:14:13.305Z,11.77
2023-01-08T22:16:45.006Z,7.80
2023-01-08T22:19:17.916Z,12.10
2023-01-08T22:21:49.425Z,11.30
2023-01-08T22:24:20.691Z,12.75
2023-01-08T22:26:54.813Z,12.15
2023-01-08T22:29:27.498Z,15.02
2023-01-08T22:32:00.424Z,12.70
2023-01-08T22:34:34.415Z,12.57
2023-01-08T22:37:06.623Z,13.98
2023-01-08T22:39:39.655Z,13.30
2023-01-08T22:42:14.694Z,13.98
2023-01-08T22:44:46.847Z,15.45
2023-01-08T22:47:19.011Z,17.33
2023-01-08T22:49:51.645Z,16.80
2023-01-08T22:52:23.843Z,16.75
2023-01-08T22:54:56.852Z,13.50
2023-01-08T22:57:31.204Z,13.35
2023-01-08T23:00:02.709Z,10.20
2023-01-08T23:02:35.091Z,10.57
2023-01-08T23:05:08.240Z,10.27
2023-01-08T23:07:41.030Z,10.18
2023-01-08T23:10:14.753Z,8.15
2023-01-08T23:12:49.631Z,6.65
2023-01-08T23:15:21.925Z,5.80
2023-01-08T23:17:54.847Z,6.65
2023-01-08T23:20:26.063Z,5.75
2023-01-08T23:22:58.385Z,5.00
2023-01-08T23:25:32.696Z,5.22
2023-01-08T23:28:07.440Z,4.72
2023-01-08T23:30:39.513Z,5.43
2023-01-08T23:33:12.930Z,5.30
2023-01-08T23:35:44.040Z,4.97
2023-01-08T23:38:15.926Z,5.43
2023-01-08T23:40:49.049Z,5.20
2023-01-08T23:43:23.212Z,6.53
2023-01-08T23:45:56.309Z,6.00
2023-01-08T23:48:27.918Z,5.38
2023-01-08T23:51:00.663Z,6.20
2023-01-08T23:53:32.997Z,5.10
2023-01-08T23:56:04.293Z,6.95
2023-01-08T23:58:38.983Z,6.10
